sensor_id;sensor_type;location;lat;lon;timestamp;pressure;altitude;pressure_sealevel;temperature;humidity
78590;BME280;67888;50.228;7.828;2024-01-27T00:00:32;100959.13;;;4.34;100.00
78590;BME280;67888;50.228;7.828;2024-01-27T00:05:32;100959.97;;;3.90;100.00
78590;BME280;67888;50.228;7.828;2024-01-27T00:10:32;100963.56;;;3.89;100.00
78590;BME280;67888;50.228;7.828;2024-01-27T00:15:33;100956.63;;;3.82;100.00
78590;BME280;67888;50.228;7.828;2024-01-27T00:20:33;100963.03;;;3.79;100.00
78590;BME280;67888;50.228;7.828;2024-01-27T00:25:33;100963.72;;;3.73;100.00
78590;BME280;67888;50.228;7.828;2024-01-27T00:30:34;100970.84;;;3.79;100.00
78590;BME280;67888;50.228;7.828;2024-01-27T00:35:34;100968.03;;;3.66;100.00
78590;BME280;67888;50.228;7.828;2024-01-27T00:40:35;100972.06;;;3.54;100.00
78590;BME280;67888;50.228;7.828;2024-01-27T00:45:35;100973.25;;;3.66;100.00
78590;BME280;67888;50.228;7.828;2024-01-27T00:50:36;100966.66;;;3.41;100.00
78590;BME280;67888;50.228;7.828;2024-01-27T00:55:36;100959.75;;;3.48;100.00
78590;BME280;67888;50.228;7.828;2024-01-27T01:00:36;100965.69;;;2.96;100.00
78590;BME280;67888;50.228;7.828;2024-01-27T01:05:37;100974.94;;;2.76;100.00
78590;BME280;67888;50.228;7.828;2024-01-27T01:10:37;100990.16;;;2.79;100.00
78590;BME280;67888;50.228;7.828;2024-01-27T01:15:38;100986.47;;;2.73;100.00
78590;BME280;67888;50.228;7.828;2024-01-27T01:20:39;100988.31;;;2.26;100.00
78590;BME280;67888;50.228;7.828;2024-01-27T01:25:40;101003.91;;;2.57;100.00
78590;BME280;67888;50.228;7.828;2024-01-27T01:30:40;101011.31;;;1.90;100.00
78590;BME280;67888;50.228;7.828;2024-01-27T01:35:41;101006.72;;;1.92;100.00
78590;BME280;67888;50.228;7.828;2024-01-27T01:40:41;101003.84;;;1.78;100.00
78590;BME280;67888;50.228;7.828;2024-01-27T01:45:41;101006.47;;;1.62;100.00
78590;BME280;67888;50.228;7.828;2024-01-27T01:50:42;101004.38;;;1.50;100.00
78590;BME280;67888;50.228;7.828;2024-01-27T01:55:42;101001.22;;;1.95;100.00
78590;BME280;67888;50.228;7.828;2024-01-27T02:00:43;101011.88;;;2.16;100.00
78590;BME280;67888;50.228;7.828;2024-01-27T02:05:44;101016.53;;;1.25;100.00
78590;BME280;67888;50.228;7.828;2024-01-27T02:10:45;101014.09;;;1.31;100.00
78590;BME280;67888;50.228;7.828;2024-01-27T02:15:46;101013.28;;;1.55;100.00
78590;BME280;67888;50.228;7.828;2024-01-27T02:20:46;101008.22;;;1.70;100.00
78590;BME280;67888;50.228;7.828;2024-01-27T02:25:47;101011.97;;;1.67;100.00
78590;BME280;67888;50.228;7.828;2024-01-27T02:30:47;101008.56;;;1.18;100.00
78590;BME280;67888;50.228;7.828;2024-01-27T02:35:48;101011.56;;;0.81;100.00
78590;BME280;67888;50.228;7.828;2024-01-27T02:40:48;101015.59;;;0.67;100.00
78590;BME280;67888;50.228;7.828;2024-01-27T02:45:48;101026.00;;;0.92;100.00
78590;BME280;67888;50.228;7.828;2024-01-27T02:50:49;101026.75;;;0.60;100.00
78590;BME280;67888;50.228;7.828;2024-01-27T02:55:49;101039.88;;;0.66;100.00
78590;BME280;67888;50.228;7.828;2024-01-27T03:00:50;101030.19;;;0.77;100.00
78590;BME280;67888;50.228;7.828;2024-01-27T03:05:51;101030.81;;;0.70;100.00
78590;BME280;67888;50.228;7.828;2024-01-27T03:10:51;101022.28;;;0.86;100.00
78590;BME280;67888;50.228;7.828;2024-01-27T03:15:52;101028.25;;;0.79;100.00
78590;BME280;67888;50.228;7.828;2024-01-27T03:20:52;101025.59;;;1.21;100.00
78590;BME280;67888;50.228;7.828;2024-01-27T03:25:52;101034.53;;;0.76;100.00
78590;BME280;67888;50.228;7.828;2024-01-27T03:30:53;101032.63;;;0.78;100.00
78590;BME280;67888;50.228;7.828;2024-01-27T03:35:53;101036.00;;;0.70;100.00
78590;BME280;67888;50.228;7.828;2024-01-27T03:40:54;101044.81;;;1.02;100.00
78590;BME280;67888;50.228;7.828;2024-01-27T03:45:54;101043.31;;;0.75;100.00
78590;BME280;67888;50.228;7.828;2024-01-27T03:50:54;101034.88;;;0.05;100.00
78590;BME280;67888;50.228;7.828;2024-01-27T03:55:55;101040.06;;;0.05;100.00
78590;BME280;67888;50.228;7.828;2024-01-27T04:00:58;101057.63;;;0.19;100.00
78590;BME280;67888;50.228;7.828;2024-01-27T04:05:59;101060.03;;;0.47;100.00
78590;BME280;67888;50.228;7.828;2024-01-27T04:11:02;101058.38;;;0.38;100.00
78590;BME280;67888;50.228;7.828;2024-01-27T04:16:02;101056.09;;;0.77;100.00
78590;BME280;67888;50.228;7.828;2024-01-27T04:21:03;101064.53;;;0.45;100.00
78590;BME280;67888;50.228;7.828;2024-01-27T04:26:04;101060.03;;;0.47;100.00
78590;BME280;67888;50.228;7.828;2024-01-27T04:31:06;101051.44;;;-0.14;100.00
78590;BME280;67888;50.228;7.828;2024-01-27T04:36:07;101066.50;;;0.51;100.00
78590;BME280;67888;50.228;7.828;2024-01-27T04:41:08;101074.19;;;0.68;100.00
78590;BME280;67888;50.228;7.828;2024-01-27T04:46:09;101065.09;;;0.22;100.00
78590;BME280;67888;50.228;7.828;2024-01-27T04:51:09;101067.78;;;-0.49;100.00
78590;BME280;67888;50.228;7.828;2024-01-27T04:56:10;101077.06;;;-0.20;100.00
78590;BME280;67888;50.228;7.828;2024-01-27T05:01:14;101073.34;;;0.00;100.00
78590;BME280;67888;50.228;7.828;2024-01-27T05:06:14;101077.38;;;-0.23;100.00
78590;BME280;67888;50.228;7.828;2024-01-27T05:11:16;101075.63;;;-0.41;100.00
78590;BME280;67888;50.228;7.828;2024-01-27T05:16:17;101075.28;;;-1.09;100.00
78590;BME280;67888;50.228;7.828;2024-01-27T05:21:18;101081.63;;;-0.40;100.00
78590;BME280;67888;50.228;7.828;2024-01-27T05:26:18;101090.56;;;-0.52;100.00
78590;BME280;67888;50.228;7.828;2024-01-27T05:31:19;101093.06;;;-0.78;100.00
78590;BME280;67888;50.228;7.828;2024-01-27T05:36:19;101087.91;;;-1.05;100.00
78590;BME280;67888;50.228;7.828;2024-01-27T05:41:20;101093.19;;;-0.80;100.00
78590;BME280;67888;50.228;7.828;2024-01-27T05:46:20;101103.38;;;-0.25;100.00
78590;BME280;67888;50.228;7.828;2024-01-27T05:51:21;101098.91;;;-0.41;100.00
78590;BME280;67888;50.228;7.828;2024-01-27T05:56:23;101103.69;;;0.16;100.00
78590;BME280;67888;50.228;7.828;2024-01-27T06:01:23;101103.66;;;-0.10;100.00
78590;BME280;67888;50.228;7.828;2024-01-27T06:06:24;101108.03;;;-0.82;100.00
78590;BME280;67888;50.228;7.828;2024-01-27T06:11:25;101114.28;;;-0.84;100.00
78590;BME280;67888;50.228;7.828;2024-01-27T06:16:25;101116.81;;;-0.75;100.00
78590;BME280;67888;50.228;7.828;2024-01-27T06:21:26;101118.00;;;-0.69;100.00
78590;BME280;67888;50.228;7.828;2024-01-27T06:26:26;101119.25;;;-0.91;100.00
78590;BME280;67888;50.228;7.828;2024-01-27T06:31:27;101109.16;;;-1.49;100.00
78590;BME280;67888;50.228;7.828;2024-01-27T06:36:27;101115.59;;;-0.98;100.00
78590;BME280;67888;50.228;7.828;2024-01-27T06:41:28;101111.22;;;-0.70;100.00
78590;BME280;67888;50.228;7.828;2024-01-27T06:46:28;101118.34;;;-1.27;100.00
78590;BME280;67888;50.228;7.828;2024-01-27T06:51:29;101119.38;;;-1.20;100.00
78590;BME280;67888;50.228;7.828;2024-01-27T06:56:29;101116.53;;;-1.63;100.00
78590;BME280;67888;50.228;7.828;2024-01-27T07:01:29;101113.22;;;-2.02;100.00
78590;BME280;67888;50.228;7.828;2024-01-27T07:06:30;101114.91;;;-1.64;100.00
78590;BME280;67888;50.228;7.828;2024-01-27T07:11:30;101117.47;;;-1.64;100.00
78590;BME280;67888;50.228;7.828;2024-01-27T07:16:31;101120.72;;;-2.19;100.00
78590;BME280;67888;50.228;7.828;2024-01-27T07:21:32;101117.66;;;-1.66;100.00
78590;BME280;67888;50.228;7.828;2024-01-27T07:26:33;101115.38;;;-1.78;100.00
78590;BME280;67888;50.228;7.828;2024-01-27T07:31:33;101132.63;;;-1.79;100.00
78590;BME280;67888;50.228;7.828;2024-01-27T07:36:34;101135.06;;;-1.97;100.00
78590;BME280;67888;50.228;7.828;2024-01-27T07:41:35;101139.41;;;-1.31;100.00
78590;BME280;67888;50.228;7.828;2024-01-27T07:46:38;101133.34;;;-1.50;100.00
78590;BME280;67888;50.228;7.828;2024-01-27T07:51:39;101123.91;;;-1.68;100.00
78590;BME280;67888;50.228;7.828;2024-01-27T07:56:39;101139.22;;;-1.20;100.00
78590;BME280;67888;50.228;7.828;2024-01-27T08:01:41;101150.38;;;-1.20;100.00
78590;BME280;67888;50.228;7.828;2024-01-27T08:06:46;101145.97;;;-1.10;100.00
78590;BME280;67888;50.228;7.828;2024-01-27T08:11:47;101147.59;;;-1.09;100.00
78590;BME280;67888;50.228;7.828;2024-01-27T08:16:52;101150.19;;;-0.81;100.00
78590;BME280;67888;50.228;7.828;2024-01-27T08:21:53;101156.75;;;-0.42;100.00
78590;BME280;67888;50.228;7.828;2024-01-27T08:26:53;101149.84;;;0.03;100.00
78590;BME280;67888;50.228;7.828;2024-01-27T08:31:53;101155.53;;;0.06;100.00
78590;BME280;67888;50.228;7.828;2024-01-27T08:37:00;101157.59;;;0.20;100.00
78590;BME280;67888;50.228;7.828;2024-01-27T08:42:01;101159.72;;;0.51;100.00
78590;BME280;67888;50.228;7.828;2024-01-27T08:47:01;101177.88;;;0.07;100.00
78590;BME280;67888;50.228;7.828;2024-01-27T08:52:02;101173.22;;;0.11;100.00
78590;BME280;67888;50.228;7.828;2024-01-27T08:57:03;101177.63;;;0.62;100.00
78590;BME280;67888;50.228;7.828;2024-01-27T09:02:04;101182.66;;;0.97;100.00
78590;BME280;67888;50.228;7.828;2024-01-27T09:07:05;101182.75;;;1.14;100.00
78590;BME280;67888;50.228;7.828;2024-01-27T09:12:05;101197.28;;;1.49;100.00
78590;BME280;67888;50.228;7.828;2024-01-27T09:17:06;101189.47;;;0.98;100.00
78590;BME280;67888;50.228;7.828;2024-01-27T09:22:07;101201.22;;;1.19;100.00
78590;BME280;67888;50.228;7.828;2024-01-27T09:27:07;101209.19;;;1.25;100.00
78590;BME280;67888;50.228;7.828;2024-01-27T09:32:08;101204.13;;;1.16;100.00
78590;BME280;67888;50.228;7.828;2024-01-27T09:37:09;101197.75;;;1.44;100.00
78590;BME280;67888;50.228;7.828;2024-01-27T09:42:13;101188.75;;;1.64;100.00
78590;BME280;67888;50.228;7.828;2024-01-27T09:47:18;101178.34;;;1.72;100.00
78590;BME280;67888;50.228;7.828;2024-01-27T09:52:20;101178.69;;;2.18;100.00
78590;BME280;67888;50.228;7.828;2024-01-27T09:57:20;101186.13;;;2.62;100.00
78590;BME280;67888;50.228;7.828;2024-01-27T10:02:22;101186.03;;;3.02;100.00
78590;BME280;67888;50.228;7.828;2024-01-27T10:07:24;101185.13;;;3.26;100.00
78590;BME280;67888;50.228;7.828;2024-01-27T10:12:26;101187.16;;;3.39;100.00
78590;BME280;67888;50.228;7.828;2024-01-27T10:17:28;101182.50;;;3.57;100.00
78590;BME280;67888;50.228;7.828;2024-01-27T10:22:38;101177.53;;;3.70;100.00
78590;BME280;67888;50.228;7.828;2024-01-27T10:27:39;101182.53;;;4.03;100.00
78590;BME280;67888;50.228;7.828;2024-01-27T10:32:40;101173.06;;;4.24;100.00
78590;BME280;67888;50.228;7.828;2024-01-27T10:37:41;101170.31;;;4.41;100.00
78590;BME280;67888;50.228;7.828;2024-01-27T10:42:43;101164.75;;;5.02;100.00
78590;BME280;67888;50.228;7.828;2024-01-27T10:47:45;101156.59;;;5.42;100.00
78590;BME280;67888;50.228;7.828;2024-01-27T10:52:47;101177.84;;;5.38;100.00
78590;BME280;67888;50.228;7.828;2024-01-27T10:57:50;101174.88;;;5.42;100.00
78590;BME280;67888;50.228;7.828;2024-01-27T11:02:53;101184.88;;;5.95;100.00
78590;BME280;67888;50.228;7.828;2024-01-27T11:07:58;101175.06;;;5.83;100.00
78590;BME280;67888;50.228;7.828;2024-01-27T11:12:59;101166.31;;;6.11;100.00
78590;BME280;67888;50.228;7.828;2024-01-27T11:18:00;101165.28;;;6.34;100.00
78590;BME280;67888;50.228;7.828;2024-01-27T11:23:09;101158.50;;;6.39;100.00
78590;BME280;67888;50.228;7.828;2024-01-27T11:28:14;101154.50;;;6.43;100.00
78590;BME280;67888;50.228;7.828;2024-01-27T11:33:15;101172.69;;;6.02;100.00
78590;BME280;67888;50.228;7.828;2024-01-27T11:38:17;101157.97;;;6.23;100.00
78590;BME280;67888;50.228;7.828;2024-01-27T11:43:17;101150.69;;;6.46;100.00
78590;BME280;67888;50.228;7.828;2024-01-27T11:48:18;101146.69;;;6.84;100.00
78590;BME280;67888;50.228;7.828;2024-01-27T11:53:19;101139.47;;;6.52;100.00
78590;BME280;67888;50.228;7.828;2024-01-27T11:58:19;101134.03;;;6.88;100.00
78590;BME280;67888;50.228;7.828;2024-01-27T12:03:22;101135.59;;;7.30;100.00
78590;BME280;67888;50.228;7.828;2024-01-27T12:08:23;101141.66;;;7.37;100.00
78590;BME280;67888;50.228;7.828;2024-01-27T12:13:23;101141.41;;;7.19;100.00
78590;BME280;67888;50.228;7.828;2024-01-27T12:18:24;101131.00;;;7.39;100.00
78590;BME280;67888;50.228;7.828;2024-01-27T12:23:25;101128.19;;;7.40;100.00
78590;BME280;67888;50.228;7.828;2024-01-27T12:28:26;101129.66;;;7.89;100.00
78590;BME280;67888;50.228;7.828;2024-01-27T12:33:27;101122.78;;;7.75;100.00
78590;BME280;67888;50.228;7.828;2024-01-27T12:38:28;101130.44;;;8.55;100.00
78590;BME280;67888;50.228;7.828;2024-01-27T12:43:28;101123.72;;;8.79;100.00
78590;BME280;67888;50.228;7.828;2024-01-27T12:48:31;101124.97;;;9.15;100.00
78590;BME280;67888;50.228;7.828;2024-01-27T12:53:31;101121.88;;;9.31;100.00
78590;BME280;67888;50.228;7.828;2024-01-27T12:58:31;101109.41;;;9.20;100.00
78590;BME280;67888;50.228;7.828;2024-01-27T13:03:32;101104.31;;;9.25;100.00
78590;BME280;67888;50.228;7.828;2024-01-27T13:08:33;101111.81;;;9.21;100.00
78590;BME280;67888;50.228;7.828;2024-01-27T13:13:33;101088.84;;;9.98;100.00
78590;BME280;67888;50.228;7.828;2024-01-27T13:18:34;101077.25;;;9.56;100.00
78590;BME280;67888;50.228;7.828;2024-01-27T13:23:34;101077.88;;;9.76;100.00
78590;BME280;67888;50.228;7.828;2024-01-27T13:28:35;101068.84;;;10.15;100.00
78590;BME280;67888;50.228;7.828;2024-01-27T13:33:35;101070.38;;;9.80;91.64
78590;BME280;67888;50.228;7.828;2024-01-27T13:38:36;100995.06;;;10.76;80.63
78590;BME280;67888;50.228;7.828;2024-01-27T13:43:37;100926.91;;;14.96;53.90
78590;BME280;67888;50.228;7.828;2024-01-27T13:48:38;100898.22;;;17.51;45.29
78590;BME280;67888;50.228;7.828;2024-01-27T13:53:39;100928.00;;;17.69;43.49
78590;BME280;67888;50.228;7.828;2024-01-27T13:58:39;100983.13;;;16.92;43.21
78590;BME280;67888;50.228;7.828;2024-01-27T14:03:41;100975.72;;;18.24;41.20
78590;BME280;67888;50.228;7.828;2024-01-27T14:08:41;101001.09;;;15.18;44.88
78590;BME280;67888;50.228;7.828;2024-01-27T14:13:42;101023.78;;;15.68;44.55
78590;BME280;67888;50.228;7.828;2024-01-27T14:18:43;101031.91;;;14.49;49.04
78590;BME280;67888;50.228;7.828;2024-01-27T14:23:43;101038.38;;;14.80;48.39
78590;BME280;67888;50.228;7.828;2024-01-27T14:28:44;101044.72;;;15.37;47.71
78590;BME280;67888;50.228;7.828;2024-01-27T14:33:45;101053.06;;;15.83;46.52
78590;BME280;67888;50.228;7.828;2024-01-27T14:38:45;101038.63;;;16.11;44.33
78590;BME280;67888;50.228;7.828;2024-01-27T14:43:46;101041.22;;;14.13;48.84
78590;BME280;67888;50.228;7.828;2024-01-27T14:48:49;101035.91;;;13.74;50.51
78590;BME280;67888;50.228;7.828;2024-01-27T14:53:50;101033.66;;;16.25;42.08
78590;BME280;67888;50.228;7.828;2024-01-27T14:58:50;101039.63;;;14.33;46.56
78590;BME280;67888;50.228;7.828;2024-01-27T15:03:52;101041.00;;;11.52;55.89
78590;BME280;67888;50.228;7.828;2024-01-27T15:08:53;101035.81;;;12.50;51.21
78590;BME280;67888;50.228;7.828;2024-01-27T15:13:54;101051.78;;;13.74;48.43
78590;BME280;67888;50.228;7.828;2024-01-27T15:18:55;101045.75;;;10.90;58.52
78590;BME280;67888;50.228;7.828;2024-01-27T15:23:56;101036.72;;;9.88;73.88
78590;BME280;67888;50.228;7.828;2024-01-27T15:28:56;101040.03;;;8.58;100.00
78590;BME280;67888;50.228;7.828;2024-01-27T15:33:57;101036.50;;;7.60;100.00
78590;BME280;67888;50.228;7.828;2024-01-27T15:38:57;101040.47;;;7.03;100.00
78590;BME280;67888;50.228;7.828;2024-01-27T15:43:58;101030.13;;;6.75;100.00
78590;BME280;67888;50.228;7.828;2024-01-27T15:48:58;101026.06;;;6.19;100.00
78590;BME280;67888;50.228;7.828;2024-01-27T15:53:59;101031.75;;;5.73;100.00
78590;BME280;67888;50.228;7.828;2024-01-27T15:58:59;101037.16;;;5.71;100.00
78590;BME280;67888;50.228;7.828;2024-01-27T16:04:00;101039.09;;;4.99;100.00
78590;BME280;67888;50.228;7.828;2024-01-27T16:09:00;101032.59;;;4.59;100.00
78590;BME280;67888;50.228;7.828;2024-01-27T16:14:01;101036.66;;;4.61;100.00
78590;BME280;67888;50.228;7.828;2024-01-27T16:19:01;101027.50;;;4.36;100.00
78590;BME280;67888;50.228;7.828;2024-01-27T16:24:02;101021.59;;;4.13;100.00
78590;BME280;67888;50.228;7.828;2024-01-27T16:29:02;101028.94;;;3.57;100.00
78590;BME280;67888;50.228;7.828;2024-01-27T16:34:04;101024.66;;;3.64;100.00
78590;BME280;67888;50.228;7.828;2024-01-27T16:39:04;101019.00;;;3.60;100.00
78590;BME280;67888;50.228;7.828;2024-01-27T16:44:05;101030.88;;;3.17;100.00
78590;BME280;67888;50.228;7.828;2024-01-27T16:49:06;101025.78;;;3.24;100.00
78590;BME280;67888;50.228;7.828;2024-01-27T16:54:07;101031.28;;;2.36;100.00
78590;BME280;67888;50.228;7.828;2024-01-27T16:59:08;101034.25;;;2.17;100.00
78590;BME280;67888;50.228;7.828;2024-01-27T17:04:08;101049.06;;;2.64;100.00
78590;BME280;67888;50.228;7.828;2024-01-27T17:09:14;101051.34;;;1.79;100.00
78590;BME280;67888;50.228;7.828;2024-01-27T17:14:15;101052.84;;;1.49;100.00
78590;BME280;67888;50.228;7.828;2024-01-27T17:19:16;101054.94;;;1.54;100.00
78590;BME280;67888;50.228;7.828;2024-01-27T17:24:17;101062.53;;;1.23;100.00
78590;BME280;67888;50.228;7.828;2024-01-27T17:29:17;101056.72;;;1.61;100.00
78590;BME280;67888;50.228;7.828;2024-01-27T17:34:18;101055.03;;;0.95;100.00
78590;BME280;67888;50.228;7.828;2024-01-27T17:39:21;101043.84;;;1.03;100.00
78590;BME280;67888;50.228;7.828;2024-01-27T17:44:21;101049.56;;;1.31;100.00
78590;BME280;67888;50.228;7.828;2024-01-27T17:49:22;101040.69;;;1.50;100.00
78590;BME280;67888;50.228;7.828;2024-01-27T17:54:23;101052.50;;;1.85;100.00
78590;BME280;67888;50.228;7.828;2024-01-27T17:59:24;101055.06;;;1.28;100.00
78590;BME280;67888;50.228;7.828;2024-01-27T18:04:24;101055.97;;;0.44;100.00
78590;BME280;67888;50.228;7.828;2024-01-27T18:09:25;101051.09;;;0.83;100.00
78590;BME280;67888;50.228;7.828;2024-01-27T18:14:27;101063.31;;;0.65;100.00
78590;BME280;67888;50.228;7.828;2024-01-27T18:19:27;101053.97;;;0.04;100.00
78590;BME280;67888;50.228;7.828;2024-01-27T18:24:27;101068.59;;;-0.13;100.00
78590;BME280;67888;50.228;7.828;2024-01-27T18:29:28;101065.53;;;-0.08;100.00
78590;BME280;67888;50.228;7.828;2024-01-27T18:34:30;101066.06;;;0.29;100.00
78590;BME280;67888;50.228;7.828;2024-01-27T18:39:30;101051.72;;;-0.17;100.00
78590;BME280;67888;50.228;7.828;2024-01-27T18:44:32;101053.66;;;0.07;100.00
78590;BME280;67888;50.228;7.828;2024-01-27T18:49:32;101059.50;;;-0.17;100.00
78590;BME280;67888;50.228;7.828;2024-01-27T18:54:33;101066.44;;;-0.17;100.00
78590;BME280;67888;50.228;7.828;2024-01-27T18:59:33;101060.97;;;0.12;100.00
78590;BME280;67888;50.228;7.828;2024-01-27T19:04:34;101054.13;;;-0.41;100.00
78590;BME280;67888;50.228;7.828;2024-01-27T19:09:34;101041.78;;;-0.04;100.00
78590;BME280;67888;50.228;7.828;2024-01-27T19:14:37;101042.53;;;-0.55;100.00
78590;BME280;67888;50.228;7.828;2024-01-27T19:19:38;101051.47;;;-0.85;100.00
78590;BME280;67888;50.228;7.828;2024-01-27T19:24:39;101041.56;;;-0.72;100.00
78590;BME280;67888;50.228;7.828;2024-01-27T19:29:39;101052.63;;;-0.26;100.00
78590;BME280;67888;50.228;7.828;2024-01-27T19:34:40;101051.88;;;-0.36;100.00
78590;BME280;67888;50.228;7.828;2024-01-27T19:39:41;101046.09;;;-0.56;100.00
78590;BME280;67888;50.228;7.828;2024-01-27T19:44:42;101047.56;;;-0.71;100.00
78590;BME280;67888;50.228;7.828;2024-01-27T19:49:42;101052.97;;;-0.64;100.00
78590;BME280;67888;50.228;7.828;2024-01-27T19:54:42;101046.72;;;0.08;100.00
78590;BME280;67888;50.228;7.828;2024-01-27T19:59:43;101056.91;;;0.09;100.00
78590;BME280;67888;50.228;7.828;2024-01-27T20:04:43;101057.63;;;-0.24;100.00
78590;BME280;67888;50.228;7.828;2024-01-27T20:09:46;101057.00;;;-0.26;100.00
78590;BME280;67888;50.228;7.828;2024-01-27T20:14:46;101048.06;;;-0.06;100.00
78590;BME280;67888;50.228;7.828;2024-01-27T20:19:47;101044.84;;;-0.52;100.00
78590;BME280;67888;50.228;7.828;2024-01-27T20:24:51;101044.31;;;-0.73;100.00
78590;BME280;67888;50.228;7.828;2024-01-27T20:29:52;101033.97;;;-0.73;100.00
78590;BME280;67888;50.228;7.828;2024-01-27T20:34:52;101035.16;;;-0.85;100.00
78590;BME280;67888;50.228;7.828;2024-01-27T20:39:53;101033.84;;;-0.89;100.00
78590;BME280;67888;50.228;7.828;2024-01-27T20:44:54;101033.59;;;-1.41;100.00
78590;BME280;67888;50.228;7.828;2024-01-27T20:49:54;101025.94;;;-0.70;100.00
78590;BME280;67888;50.228;7.828;2024-01-27T20:54:55;101031.75;;;-0.68;100.00
78590;BME280;67888;50.228;7.828;2024-01-27T20:59:56;101022.38;;;-0.69;100.00
78590;BME280;67888;50.228;7.828;2024-01-27T21:04:56;101020.25;;;-0.91;100.00
78590;BME280;67888;50.228;7.828;2024-01-27T21:09:56;101024.72;;;-0.76;100.00
78590;BME280;67888;50.228;7.828;2024-01-27T21:14:57;101019.44;;;-0.92;100.00
78590;BME280;67888;50.228;7.828;2024-01-27T21:19:58;101017.00;;;-0.93;100.00
78590;BME280;67888;50.228;7.828;2024-01-27T21:24:58;101004.06;;;-0.58;100.00
78590;BME280;67888;50.228;7.828;2024-01-27T21:29:59;100999.88;;;-0.94;100.00
78590;BME280;67888;50.228;7.828;2024-01-27T21:35:01;101000.75;;;-1.49;100.00
78590;BME280;67888;50.228;7.828;2024-01-27T21:40:01;101002.59;;;-1.96;100.00
78590;BME280;67888;50.228;7.828;2024-01-27T21:45:04;100992.50;;;-1.79;100.00
78590;BME280;67888;50.228;7.828;2024-01-27T21:50:05;100998.00;;;-1.74;100.00
78590;BME280;67888;50.228;7.828;2024-01-27T21:55:06;100999.09;;;-1.67;100.00
78590;BME280;67888;50.228;7.828;2024-01-27T22:00:07;101002.13;;;-1.82;100.00
78590;BME280;67888;50.228;7.828;2024-01-27T22:05:09;101002.50;;;-1.76;100.00
78590;BME280;67888;50.228;7.828;2024-01-27T22:10:13;100997.66;;;-1.89;100.00
78590;BME280;67888;50.228;7.828;2024-01-27T22:15:13;100991.81;;;-1.82;100.00
78590;BME280;67888;50.228;7.828;2024-01-27T22:20:14;100988.53;;;-2.21;100.00
78590;BME280;67888;50.228;7.828;2024-01-27T22:25:14;100995.78;;;-1.97;100.00
78590;BME280;67888;50.228;7.828;2024-01-27T22:30:15;100994.25;;;-2.17;100.00
78590;BME280;67888;50.228;7.828;2024-01-27T22:35:16;100990.13;;;-2.10;100.00
78590;BME280;67888;50.228;7.828;2024-01-27T22:40:17;100999.06;;;-1.95;100.00
78590;BME280;67888;50.228;7.828;2024-01-27T22:45:17;100996.53;;;-2.14;100.00
78590;BME280;67888;50.228;7.828;2024-01-27T22:50:20;100988.03;;;-2.34;100.00
78590;BME280;67888;50.228;7.828;2024-01-27T22:55:21;100974.31;;;-1.88;100.00
78590;BME280;67888;50.228;7.828;2024-01-27T23:00:21;100978.22;;;-1.84;100.00
78590;BME280;67888;50.228;7.828;2024-01-27T23:05:34;100961.59;;;-2.45;100.00
78590;BME280;67888;50.228;7.828;2024-01-27T23:10:35;100968.66;;;-2.47;100.00
78590;BME280;67888;50.228;7.828;2024-01-27T23:15:36;100958.25;;;-2.09;100.00
78590;BME280;67888;50.228;7.828;2024-01-27T23:20:37;100961.38;;;-2.05;100.00
78590;BME280;67888;50.228;7.828;2024-01-27T23:25:38;100947.63;;;-2.53;100.00
78590;BME280;67888;50.228;7.828;2024-01-27T23:30:46;100958.16;;;-2.17;100.00
78590;BME280;67888;50.228;7.828;2024-01-27T23:35:47;100946.47;;;-2.21;100.00
78590;BME280;67888;50.228;7.828;2024-01-27T23:40:48;100940.91;;;-2.82;100.00
78590;BME280;67888;50.228;7.828;2024-01-27T23:45:48;100937.69;;;-2.38;100.00
78590;BME280;67888;50.228;7.828;2024-01-27T23:50:49;100931.25;;;-2.14;100.00
78590;BME280;67888;50.228;7.828;2024-01-27T23:55:52;100922.53;;;-2.41;100.00
